Sirios Cement IV — 9HQE8 — position and weather

sailwx.info

Track history (hours):
 
Tides and Currents Weather Stations Pressure Air Temp Water Temp Dewpoint Dewpoint Depression Visibility Wind Speed Wind Dir Waves Ship Positions

Sirios Cement IV

Last reported at 2016-May-04 12:25 UTC. Time now 2016-May-04 19:18 UTC.
Position N 45°28' E 012°15'.

Length 134 m; draft 8.4 m.

Type: Cargo ship. MMSI: 256278000.

Date/timePositionNaut miles runAvg speedWind from/ knotsBaromVisibWave heightAir tempDewpointWater temp
2016-May-04 12:25N 45°28' E 012°15'0 0.0
2016-May-04 11:22N 45°28' E 012°15'0 0.0
2016-May-04 10:16N 45°28' E 012°15'0 0.0
2016-May-04 07:28N 45°28' E 012°15'0 0.0
2016-May-04 06:32N 45°28' E 012°15'0 0.0
2016-May-04 05:31N 45°28' E 012°15'0 0.0
2016-May-04 04:28N 45°28' E 012°15'0 0.0
2016-May-04 03:31N 45°28' E 012°15'0 0.0
2016-May-04 02:31N 45°28' E 012°15'0 0.0
2016-May-04 01:31N 45°28' E 012°15'0 0.0
2016-May-04 00:32N 45°28' E 012°15'0 0.0
2016-May-03 23:31N 45°28' E 012°15'0 0.0
2016-May-03 22:25N 45°28' E 012°15'0 0.0
2016-May-03 21:31N 45°28' E 012°15'0 0.0
2016-May-03 20:25N 45°28' E 012°15'0 0.0
2016-May-03 19:25N 45°28' E 012°15'0 0.0
2016-May-03 17:22N 45°28' E 012°15'0 0.0
2016-May-03 08:28N 45°28' E 012°15'0 0.0
2016-May-03 07:16N 45°28' E 012°15'0 0.0
2016-May-03 06:28N 45°28' E 012°15'0 0.0
2016-May-03 05:28N 45°28' E 012°15'0 0.0
2016-May-03 04:28N 45°28' E 012°15'0 0.0
2016-May-03 03:31N 45°28' E 012°15'0 0.0
2016-May-03 02:31N 45°28' E 012°15'0 0.0
2016-May-02 22:10N 45°28' E 012°15'0 0.0
2016-May-02 21:17N 45°28' E 012°15'0 0.0
2016-May-02 20:16N 45°28' E 012°15'0 0.0
2016-May-02 19:29N 45°28' E 012°15'0 0.0
2016-May-02 18:28N 45°28' E 012°15'0 0.0
2016-May-02 16:28N 45°28' E 012°15'0 0.0
2016-May-02 13:31N 45°28' E 012°15'0 0.0
2016-May-02 12:19N 45°28' E 012°15'0 0.0
2016-May-02 11:16N 45°28' E 012°15'0 0.0
2016-May-02 10:28N 45°28' E 012°15'0 0.0
2016-May-02 08:16N 45°28' E 012°15'0 0.0
2016-May-02 07:22N 45°28' E 012°15'0 0.2
2016-May-02 05:32N 45°27' E 012°15'7 6.8
2016-May-02 04:34N 45°21' E 012°16'7 6.8
2016-May-02 03:33N 45°22' E 012°25'1 0.6
2016-May-02 02:33N 45°23' E 012°25'0 0.0
2016-May-02 01:33N 45°23' E 012°25'0 0.0
2016-May-02 00:33N 45°23' E 012°25'0 0.0
2016-May-01 23:30N 45°23' E 012°25'0 0.0
2016-May-01 22:27N 45°23' E 012°25'0 0.0
2016-May-01 21:27N 45°23' E 012°25'0 0.0
2016-May-01 20:33N 45°23' E 012°25'0 0.0
2016-May-01 19:21N 45°23' E 012°25'0 0.0
2016-May-01 18:27N 45°23' E 012°25'0 0.0
2016-May-01 17:33N 45°23' E 012°25'0 0.0
2016-May-01 16:33N 45°23' E 012°25'0 0.1
2016-May-01 15:33N 45°23' E 012°25'6 6.3
2016-May-01 14:34N 45°18' E 012°31'9 9.2
2016-May-01 13:33N 45°12' E 012°41'  
Track history (hours):
 
Tides and Currents Weather Stations Pressure Air Temp Water Temp Dewpoint Dewpoint Depression Visibility Wind Speed Wind Dir Waves Ship Positions

Sirios Cement IV

Last reported at 2016-May-04 12:25 UTC. Time now 2016-May-04 19:18 UTC.
Position N 45°28' E 012°15'.

Length 134 m; draft 8.4 m.

Type: Cargo ship. MMSI: 256278000.

Date/timePositionNaut miles runAvg speedWind from/ knotsBaromVisibWave heightAir tempDewpointWater temp
2016-May-04 12:25N 45°28' E 012°15'0 0.0
2016-May-04 11:22N 45°28' E 012°15'0 0.0
2016-May-04 10:16N 45°28' E 012°15'0 0.0
2016-May-04 07:28N 45°28' E 012°15'0 0.0
2016-May-04 06:32N 45°28' E 012°15'0 0.0
2016-May-04 05:31N 45°28' E 012°15'0 0.0
2016-May-04 04:28N 45°28' E 012°15'0 0.0
2016-May-04 03:31N 45°28' E 012°15'0 0.0
2016-May-04 02:31N 45°28' E 012°15'0 0.0
2016-May-04 01:31N 45°28' E 012°15'0 0.0
2016-May-04 00:32N 45°28' E 012°15'0 0.0
2016-May-03 23:31N 45°28' E 012°15'0 0.0
2016-May-03 22:25N 45°28' E 012°15'0 0.0
2016-May-03 21:31N 45°28' E 012°15'0 0.0
2016-May-03 20:25N 45°28' E 012°15'0 0.0
2016-May-03 19:25N 45°28' E 012°15'0 0.0
2016-May-03 17:22N 45°28' E 012°15'0 0.0
2016-May-03 08:28N 45°28' E 012°15'0 0.0
2016-May-03 07:16N 45°28' E 012°15'0 0.0
2016-May-03 06:28N 45°28' E 012°15'0 0.0
2016-May-03 05:28N 45°28' E 012°15'0 0.0
2016-May-03 04:28N 45°28' E 012°15'0 0.0
2016-May-03 03:31N 45°28' E 012°15'0 0.0
2016-May-03 02:31N 45°28' E 012°15'0 0.0
2016-May-02 22:10N 45°28' E 012°15'0 0.0
2016-May-02 21:17N 45°28' E 012°15'0 0.0
2016-May-02 20:16N 45°28' E 012°15'0 0.0
2016-May-02 19:29N 45°28' E 012°15'0 0.0
2016-May-02 18:28N 45°28' E 012°15'0 0.0
2016-May-02 16:28N 45°28' E 012°15'0 0.0
2016-May-02 13:31N 45°28' E 012°15'0 0.0
2016-May-02 12:19N 45°28' E 012°15'0 0.0
2016-May-02 11:16N 45°28' E 012°15'0 0.0
2016-May-02 10:28N 45°28' E 012°15'0 0.0
2016-May-02 08:16N 45°28' E 012°15'0 0.0
2016-May-02 07:22N 45°28' E 012°15'0 0.2
2016-May-02 05:32N 45°27' E 012°15'7 6.8
2016-May-02 04:34N 45°21' E 012°16'7 6.8
2016-May-02 03:33N 45°22' E 012°25'1 0.6
2016-May-02 02:33N 45°23' E 012°25'0 0.0
2016-May-02 01:33N 45°23' E 012°25'0 0.0
2016-May-02 00:33N 45°23' E 012°25'0 0.0
2016-May-01 23:30N 45°23' E 012°25'0 0.0
2016-May-01 22:27N 45°23' E 012°25'0 0.0
2016-May-01 21:27N 45°23' E 012°25'0 0.0
2016-May-01 20:33N 45°23' E 012°25'0 0.0
2016-May-01 19:21N 45°23' E 012°25'0 0.0
2016-May-01 18:27N 45°23' E 012°25'0 0.0
2016-May-01 17:33N 45°23' E 012°25'0 0.0
2016-May-01 16:33N 45°23' E 012°25'0 0.1
2016-May-01 15:33N 45°23' E 012°25'6 6.3
2016-May-01 14:34N 45°18' E 012°31'9 9.2
2016-May-01 13:33N 45°12' E 012°41'  

Dump ship's entire track history